sensor_id;sensor_type;location;lat;lon;timestamp;temperature;humidity
46754;DHT22;32500;50.620;3.400;2024-01-27T00:01:17;14.90;61.70
46754;DHT22;32500;50.620;3.400;2024-01-27T00:03:42;14.90;61.60
46754;DHT22;32500;50.620;3.400;2024-01-27T00:06:08;14.80;61.70
46754;DHT22;32500;50.620;3.400;2024-01-27T00:08:34;14.90;61.60
46754;DHT22;32500;50.620;3.400;2024-01-27T00:10:59;14.90;61.50
46754;DHT22;32500;50.620;3.400;2024-01-27T00:13:25;14.90;61.50
46754;DHT22;32500;50.620;3.400;2024-01-27T00:15:51;14.90;61.30
46754;DHT22;32500;50.620;3.400;2024-01-27T00:18:17;14.90;61.30
46754;DHT22;32500;50.620;3.400;2024-01-27T00:20:43;14.80;61.40
46754;DHT22;32500;50.620;3.400;2024-01-27T00:23:08;14.80;61.40
46754;DHT22;32500;50.620;3.400;2024-01-27T00:25:34;14.80;61.40
46754;DHT22;32500;50.620;3.400;2024-01-27T00:28:00;14.80;61.20
46754;DHT22;32500;50.620;3.400;2024-01-27T00:30:25;14.80;61.30
46754;DHT22;32500;50.620;3.400;2024-01-27T00:32:51;14.80;61.40
46754;DHT22;32500;50.620;3.400;2024-01-27T00:35:17;14.80;61.30
46754;DHT22;32500;50.620;3.400;2024-01-27T00:37:43;14.80;61.40
46754;DHT22;32500;50.620;3.400;2024-01-27T00:40:10;14.80;61.30
46754;DHT22;32500;50.620;3.400;2024-01-27T00:42:36;14.80;61.50
46754;DHT22;32500;50.620;3.400;2024-01-27T00:45:04;14.70;61.40
46754;DHT22;32500;50.620;3.400;2024-01-27T00:47:30;14.80;61.40
46754;DHT22;32500;50.620;3.400;2024-01-27T00:49:55;14.70;61.30
46754;DHT22;32500;50.620;3.400;2024-01-27T00:52:21;14.70;61.40
46754;DHT22;32500;50.620;3.400;2024-01-27T00:54:47;14.70;61.40
46754;DHT22;32500;50.620;3.400;2024-01-27T00:57:12;14.70;61.50
46754;DHT22;32500;50.620;3.400;2024-01-27T00:59:38;14.70;61.30
46754;DHT22;32500;50.620;3.400;2024-01-27T01:02:04;14.70;61.40
46754;DHT22;32500;50.620;3.400;2024-01-27T01:04:30;14.70;61.40
46754;DHT22;32500;50.620;3.400;2024-01-27T01:06:56;14.60;61.40
46754;DHT22;32500;50.620;3.400;2024-01-27T01:09:21;14.60;61.30
46754;DHT22;32500;50.620;3.400;2024-01-27T01:11:47;14.60;61.40
46754;DHT22;32500;50.620;3.400;2024-01-27T01:14:13;14.60;61.30
46754;DHT22;32500;50.620;3.400;2024-01-27T01:16:40;14.60;61.50
46754;DHT22;32500;50.620;3.400;2024-01-27T01:19:05;14.60;61.30
46754;DHT22;32500;50.620;3.400;2024-01-27T01:21:31;14.60;61.30
46754;DHT22;32500;50.620;3.400;2024-01-27T01:23:57;14.50;61.40
46754;DHT22;32500;50.620;3.400;2024-01-27T01:26:23;14.60;61.30
46754;DHT22;32500;50.620;3.400;2024-01-27T01:28:50;14.50;61.30
46754;DHT22;32500;50.620;3.400;2024-01-27T01:31:15;14.50;61.20
46754;DHT22;32500;50.620;3.400;2024-01-27T01:33:42;14.50;61.30
46754;DHT22;32500;50.620;3.400;2024-01-27T01:36:08;14.50;61.20
46754;DHT22;32500;50.620;3.400;2024-01-27T01:38:34;14.50;61.30
46754;DHT22;32500;50.620;3.400;2024-01-27T01:41:00;14.50;61.30
46754;DHT22;32500;50.620;3.400;2024-01-27T01:43:25;14.40;61.30
46754;DHT22;32500;50.620;3.400;2024-01-27T01:45:51;14.40;61.20
46754;DHT22;32500;50.620;3.400;2024-01-27T01:48:19;14.40;61.30
46754;DHT22;32500;50.620;3.400;2024-01-27T01:50:45;14.40;61.20
46754;DHT22;32500;50.620;3.400;2024-01-27T01:53:12;14.50;61.40
46754;DHT22;32500;50.620;3.400;2024-01-27T01:55:39;14.40;61.40
46754;DHT22;32500;50.620;3.400;2024-01-27T01:58:05;14.40;61.50
46754;DHT22;32500;50.620;3.400;2024-01-27T02:00:31;14.40;61.50
46754;DHT22;32500;50.620;3.400;2024-01-27T02:02:57;14.40;61.70
46754;DHT22;32500;50.620;3.400;2024-01-27T02:05:23;14.40;61.90
46754;DHT22;32500;50.620;3.400;2024-01-27T02:07:48;14.40;61.50
46754;DHT22;32500;50.620;3.400;2024-01-27T02:10:15;14.40;61.60
46754;DHT22;32500;50.620;3.400;2024-01-27T02:12:42;14.40;61.50
46754;DHT22;32500;50.620;3.400;2024-01-27T02:15:11;14.30;61.50
46754;DHT22;32500;50.620;3.400;2024-01-27T02:17:38;14.40;61.70
46754;DHT22;32500;50.620;3.400;2024-01-27T02:20:08;14.30;61.60
46754;DHT22;32500;50.620;3.400;2024-01-27T02:22:34;14.30;61.60
46754;DHT22;32500;50.620;3.400;2024-01-27T02:25:00;14.30;61.50
46754;DHT22;32500;50.620;3.400;2024-01-27T02:27:26;14.30;61.60
46754;DHT22;32500;50.620;3.400;2024-01-27T02:29:52;14.30;61.60
46754;DHT22;32500;50.620;3.400;2024-01-27T02:32:18;14.30;61.70
46754;DHT22;32500;50.620;3.400;2024-01-27T02:34:43;14.30;61.50
46754;DHT22;32500;50.620;3.400;2024-01-27T02:37:09;14.30;61.50
46754;DHT22;32500;50.620;3.400;2024-01-27T02:39:35;14.20;61.50
46754;DHT22;32500;50.620;3.400;2024-01-27T02:42:01;14.20;61.50
46754;DHT22;32500;50.620;3.400;2024-01-27T02:44:27;14.20;61.50
46754;DHT22;32500;50.620;3.400;2024-01-27T02:46:53;14.20;61.50
46754;DHT22;32500;50.620;3.400;2024-01-27T02:49:18;14.20;61.50
46754;DHT22;32500;50.620;3.400;2024-01-27T02:51:44;14.20;61.50
46754;DHT22;32500;50.620;3.400;2024-01-27T02:54:10;14.20;61.40
46754;DHT22;32500;50.620;3.400;2024-01-27T02:56:35;14.20;61.40
46754;DHT22;32500;50.620;3.400;2024-01-27T02:59:01;14.10;61.50
46754;DHT22;32500;50.620;3.400;2024-01-27T03:01:27;14.10;61.50
46754;DHT22;32500;50.620;3.400;2024-01-27T03:03:53;14.10;61.50
46754;DHT22;32500;50.620;3.400;2024-01-27T03:06:18;14.10;61.40
46754;DHT22;32500;50.620;3.400;2024-01-27T03:08:44;14.10;61.50
46754;DHT22;32500;50.620;3.400;2024-01-27T03:11:10;14.10;62.30
46754;DHT22;32500;50.620;3.400;2024-01-27T03:13:36;14.10;61.60
46754;DHT22;32500;50.620;3.400;2024-01-27T03:16:02;14.10;61.50
46754;DHT22;32500;50.620;3.400;2024-01-27T03:18:27;14.10;61.60
46754;DHT22;32500;50.620;3.400;2024-01-27T03:20:53;14.10;61.60
46754;DHT22;32500;50.620;3.400;2024-01-27T03:23:19;14.10;61.60
46754;DHT22;32500;50.620;3.400;2024-01-27T03:25:45;14.10;61.60
46754;DHT22;32500;50.620;3.400;2024-01-27T03:28:10;14.00;61.60
46754;DHT22;32500;50.620;3.400;2024-01-27T03:30:37;14.00;61.70
46754;DHT22;32500;50.620;3.400;2024-01-27T03:33:03;14.00;61.70
46754;DHT22;32500;50.620;3.400;2024-01-27T03:35:29;14.00;61.70
46754;DHT22;32500;50.620;3.400;2024-01-27T03:37:54;14.00;61.70
46754;DHT22;32500;50.620;3.400;2024-01-27T03:40:20;14.00;61.70
46754;DHT22;32500;50.620;3.400;2024-01-27T03:42:45;14.00;61.70
46754;DHT22;32500;50.620;3.400;2024-01-27T03:45:11;13.90;61.60
46754;DHT22;32500;50.620;3.400;2024-01-27T03:47:37;13.90;61.80
46754;DHT22;32500;50.620;3.400;2024-01-27T03:50:02;14.00;61.80
46754;DHT22;32500;50.620;3.400;2024-01-27T03:52:28;13.90;61.70
46754;DHT22;32500;50.620;3.400;2024-01-27T03:54:54;13.90;61.70
46754;DHT22;32500;50.620;3.400;2024-01-27T03:57:19;13.90;61.80
46754;DHT22;32500;50.620;3.400;2024-01-27T03:59:45;13.90;61.70
46754;DHT22;32500;50.620;3.400;2024-01-27T04:02:10;13.90;61.80
46754;DHT22;32500;50.620;3.400;2024-01-27T04:04:36;13.80;61.70
46754;DHT22;32500;50.620;3.400;2024-01-27T04:07:02;13.90;61.70
46754;DHT22;32500;50.620;3.400;2024-01-27T04:09:27;13.90;61.70
46754;DHT22;32500;50.620;3.400;2024-01-27T04:11:53;13.90;61.70
46754;DHT22;32500;50.620;3.400;2024-01-27T04:14:19;13.80;61.60
46754;DHT22;32500;50.620;3.400;2024-01-27T04:16:44;13.80;61.80
46754;DHT22;32500;50.620;3.400;2024-01-27T04:19:10;13.80;61.80
46754;DHT22;32500;50.620;3.400;2024-01-27T04:21:36;13.80;61.80
46754;DHT22;32500;50.620;3.400;2024-01-27T04:24:02;13.80;61.80
46754;DHT22;32500;50.620;3.400;2024-01-27T04:26:28;13.80;61.70
46754;DHT22;32500;50.620;3.400;2024-01-27T04:28:53;13.80;61.80
46754;DHT22;32500;50.620;3.400;2024-01-27T04:31:19;13.80;61.80
46754;DHT22;32500;50.620;3.400;2024-01-27T04:33:44;13.80;61.80
46754;DHT22;32500;50.620;3.400;2024-01-27T04:36:10;13.70;61.70
46754;DHT22;32500;50.620;3.400;2024-01-27T04:38:36;13.80;61.80
46754;DHT22;32500;50.620;3.400;2024-01-27T04:41:02;13.80;61.70
46754;DHT22;32500;50.620;3.400;2024-01-27T04:43:28;13.70;61.70
46754;DHT22;32500;50.620;3.400;2024-01-27T04:45:54;13.70;61.70
46754;DHT22;32500;50.620;3.400;2024-01-27T04:48:20;13.80;61.90
46754;DHT22;32500;50.620;3.400;2024-01-27T04:50:46;13.70;61.70
46754;DHT22;32500;50.620;3.400;2024-01-27T04:53:12;13.70;61.70
46754;DHT22;32500;50.620;3.400;2024-01-27T04:55:38;13.70;61.80
46754;DHT22;32500;50.620;3.400;2024-01-27T04:58:04;13.70;61.80
46754;DHT22;32500;50.620;3.400;2024-01-27T05:00:30;13.60;61.70
46754;DHT22;32500;50.620;3.400;2024-01-27T05:02:56;13.70;61.80
46754;DHT22;32500;50.620;3.400;2024-01-27T05:05:23;13.70;61.80
46754;DHT22;32500;50.620;3.400;2024-01-27T05:07:48;13.70;61.90
46754;DHT22;32500;50.620;3.400;2024-01-27T05:10:17;13.60;61.80
46754;DHT22;32500;50.620;3.400;2024-01-27T05:12:43;13.60;61.70
46754;DHT22;32500;50.620;3.400;2024-01-27T05:15:10;13.60;61.70
46754;DHT22;32500;50.620;3.400;2024-01-27T05:17:35;13.60;61.70
46754;DHT22;32500;50.620;3.400;2024-01-27T05:20:01;13.60;61.80
46754;DHT22;32500;50.620;3.400;2024-01-27T05:22:29;13.60;61.70
46754;DHT22;32500;50.620;3.400;2024-01-27T05:24:55;13.60;61.80
46754;DHT22;32500;50.620;3.400;2024-01-27T05:27:21;13.60;61.80
46754;DHT22;32500;50.620;3.400;2024-01-27T05:29:46;13.60;61.80
46754;DHT22;32500;50.620;3.400;2024-01-27T05:32:12;13.60;61.80
46754;DHT22;32500;50.620;3.400;2024-01-27T05:34:38;13.60;61.80
46754;DHT22;32500;50.620;3.400;2024-01-27T05:37:04;13.60;61.80
46754;DHT22;32500;50.620;3.400;2024-01-27T05:39:29;13.60;61.80
46754;DHT22;32500;50.620;3.400;2024-01-27T05:41:55;13.50;61.80
46754;DHT22;32500;50.620;3.400;2024-01-27T05:44:21;13.50;61.90
46754;DHT22;32500;50.620;3.400;2024-01-27T05:46:46;13.50;61.90
46754;DHT22;32500;50.620;3.400;2024-01-27T05:49:12;13.50;61.90
46754;DHT22;32500;50.620;3.400;2024-01-27T05:51:38;13.50;62.00
46754;DHT22;32500;50.620;3.400;2024-01-27T05:54:03;13.50;61.80
46754;DHT22;32500;50.620;3.400;2024-01-27T05:56:29;13.50;61.80
46754;DHT22;32500;50.620;3.400;2024-01-27T05:58:55;13.50;61.90
46754;DHT22;32500;50.620;3.400;2024-01-27T06:01:21;13.50;61.80
46754;DHT22;32500;50.620;3.400;2024-01-27T06:03:46;13.50;61.80
46754;DHT22;32500;50.620;3.400;2024-01-27T06:06:12;13.50;61.90
46754;DHT22;32500;50.620;3.400;2024-01-27T06:08:38;13.40;61.80
46754;DHT22;32500;50.620;3.400;2024-01-27T06:11:04;13.40;61.70
46754;DHT22;32500;50.620;3.400;2024-01-27T06:13:30;13.40;61.90
46754;DHT22;32500;50.620;3.400;2024-01-27T06:15:56;13.50;61.90
46754;DHT22;32500;50.620;3.400;2024-01-27T06:18:21;13.40;61.90
46754;DHT22;32500;50.620;3.400;2024-01-27T06:20:47;13.40;62.00
46754;DHT22;32500;50.620;3.400;2024-01-27T06:23:13;13.40;61.90
46754;DHT22;32500;50.620;3.400;2024-01-27T06:25:39;13.40;62.00
46754;DHT22;32500;50.620;3.400;2024-01-27T06:28:04;13.40;62.00
46754;DHT22;32500;50.620;3.400;2024-01-27T06:30:30;13.40;61.80
46754;DHT22;32500;50.620;3.400;2024-01-27T06:32:56;13.40;62.00
46754;DHT22;32500;50.620;3.400;2024-01-27T06:35:21;13.30;61.80
46754;DHT22;32500;50.620;3.400;2024-01-27T06:37:47;13.30;62.00
46754;DHT22;32500;50.620;3.400;2024-01-27T06:40:13;13.30;61.90
46754;DHT22;32500;50.620;3.400;2024-01-27T06:42:39;13.30;61.80
46754;DHT22;32500;50.620;3.400;2024-01-27T06:45:05;13.30;61.90
46754;DHT22;32500;50.620;3.400;2024-01-27T06:47:31;13.30;61.90
46754;DHT22;32500;50.620;3.400;2024-01-27T06:49:56;13.30;61.80
46754;DHT22;32500;50.620;3.400;2024-01-27T06:52:22;13.30;61.80
46754;DHT22;32500;50.620;3.400;2024-01-27T06:54:48;13.30;62.00
46754;DHT22;32500;50.620;3.400;2024-01-27T06:57:23;13.30;61.80
46754;DHT22;32500;50.620;3.400;2024-01-27T06:59:51;13.30;61.80
46754;DHT22;32500;50.620;3.400;2024-01-27T07:02:25;13.30;61.90
46754;DHT22;32500;50.620;3.400;2024-01-27T07:04:51;13.20;61.90
46754;DHT22;32500;50.620;3.400;2024-01-27T07:07:18;13.30;61.90
46754;DHT22;32500;50.620;3.400;2024-01-27T07:09:47;13.20;61.80
46754;DHT22;32500;50.620;3.400;2024-01-27T07:12:13;13.30;61.80
46754;DHT22;32500;50.620;3.400;2024-01-27T07:14:39;13.20;61.80
46754;DHT22;32500;50.620;3.400;2024-01-27T07:17:04;13.20;61.90
46754;DHT22;32500;50.620;3.400;2024-01-27T07:19:31;13.20;62.00
46754;DHT22;32500;50.620;3.400;2024-01-27T07:21:56;13.20;61.90
46754;DHT22;32500;50.620;3.400;2024-01-27T07:24:22;13.20;62.70
46754;DHT22;32500;50.620;3.400;2024-01-27T07:26:47;13.20;61.90
46754;DHT22;32500;50.620;3.400;2024-01-27T07:29:13;13.20;61.90
46754;DHT22;32500;50.620;3.400;2024-01-27T07:31:39;13.20;61.80
46754;DHT22;32500;50.620;3.400;2024-01-27T07:34:04;13.20;61.80
46754;DHT22;32500;50.620;3.400;2024-01-27T07:36:32;13.20;61.90
46754;DHT22;32500;50.620;3.400;2024-01-27T07:38:58;13.20;61.80
46754;DHT22;32500;50.620;3.400;2024-01-27T07:41:24;13.20;61.80
46754;DHT22;32500;50.620;3.400;2024-01-27T07:43:50;13.20;61.90
46754;DHT22;32500;50.620;3.400;2024-01-27T07:46:15;13.10;61.80
46754;DHT22;32500;50.620;3.400;2024-01-27T07:48:41;13.10;61.80
46754;DHT22;32500;50.620;3.400;2024-01-27T07:51:07;13.10;61.80
46754;DHT22;32500;50.620;3.400;2024-01-27T07:53:33;13.20;61.80
46754;DHT22;32500;50.620;3.400;2024-01-27T07:55:59;13.20;61.80
46754;DHT22;32500;50.620;3.400;2024-01-27T07:58:25;13.20;61.80
46754;DHT22;32500;50.620;3.400;2024-01-27T08:00:51;13.20;61.90
46754;DHT22;32500;50.620;3.400;2024-01-27T08:03:16;13.10;61.70
46754;DHT22;32500;50.620;3.400;2024-01-27T08:05:42;13.10;61.80
46754;DHT22;32500;50.620;3.400;2024-01-27T08:08:08;13.20;62.00
46754;DHT22;32500;50.620;3.400;2024-01-27T08:10:33;13.20;61.90
46754;DHT22;32500;50.620;3.400;2024-01-27T08:12:59;13.20;61.90
46754;DHT22;32500;50.620;3.400;2024-01-27T08:15:25;13.20;62.10
46754;DHT22;32500;50.620;3.400;2024-01-27T08:17:51;13.10;62.10
46754;DHT22;32500;50.620;3.400;2024-01-27T08:20:16;13.10;61.90
46754;DHT22;32500;50.620;3.400;2024-01-27T08:22:42;13.10;61.70
46754;DHT22;32500;50.620;3.400;2024-01-27T08:25:08;13.10;61.90
46754;DHT22;32500;50.620;3.400;2024-01-27T08:27:33;13.10;61.90
46754;DHT22;32500;50.620;3.400;2024-01-27T08:29:59;13.10;61.70
46754;DHT22;32500;50.620;3.400;2024-01-27T08:32:25;13.10;61.70
46754;DHT22;32500;50.620;3.400;2024-01-27T08:34:50;13.10;61.60
46754;DHT22;32500;50.620;3.400;2024-01-27T08:37:20;13.10;61.60
46754;DHT22;32500;50.620;3.400;2024-01-27T08:39:46;13.10;61.60
46754;DHT22;32500;50.620;3.400;2024-01-27T08:42:12;13.20;61.70
46754;DHT22;32500;50.620;3.400;2024-01-27T08:44:38;13.20;61.60
46754;DHT22;32500;50.620;3.400;2024-01-27T08:47:05;13.30;61.30
46754;DHT22;32500;50.620;3.400;2024-01-27T08:49:31;13.40;61.20
46754;DHT22;32500;50.620;3.400;2024-01-27T08:51:56;13.40;60.90
46754;DHT22;32500;50.620;3.400;2024-01-27T08:54:22;13.50;60.90
46754;DHT22;32500;50.620;3.400;2024-01-27T08:56:48;13.50;60.70
46754;DHT22;32500;50.620;3.400;2024-01-27T08:59:13;13.60;60.70
46754;DHT22;32500;50.620;3.400;2024-01-27T09:01:39;13.70;60.80
46754;DHT22;32500;50.620;3.400;2024-01-27T09:04:05;13.70;60.80
46754;DHT22;32500;50.620;3.400;2024-01-27T09:06:31;13.70;60.90
46754;DHT22;32500;50.620;3.400;2024-01-27T09:08:57;13.70;60.90
46754;DHT22;32500;50.620;3.400;2024-01-27T09:11:23;13.70;60.90
46754;DHT22;32500;50.620;3.400;2024-01-27T09:13:49;13.70;60.80
46754;DHT22;32500;50.620;3.400;2024-01-27T09:16:17;13.80;60.80
46754;DHT22;32500;50.620;3.400;2024-01-27T09:18:43;13.80;60.70
46754;DHT22;32500;50.620;3.400;2024-01-27T09:21:09;13.90;60.80
46754;DHT22;32500;50.620;3.400;2024-01-27T09:23:35;13.90;61.20
46754;DHT22;32500;50.620;3.400;2024-01-27T09:26:01;13.90;60.90
46754;DHT22;32500;50.620;3.400;2024-01-27T09:28:27;13.90;60.90
46754;DHT22;32500;50.620;3.400;2024-01-27T09:30:52;13.90;60.70
46754;DHT22;32500;50.620;3.400;2024-01-27T09:33:18;13.90;60.50
46754;DHT22;32500;50.620;3.400;2024-01-27T09:35:46;14.00;60.70
46754;DHT22;32500;50.620;3.400;2024-01-27T09:38:12;14.20;61.80
46754;DHT22;32500;50.620;3.400;2024-01-27T09:40:38;14.40;64.30
46754;DHT22;32500;50.620;3.400;2024-01-27T09:43:04;14.50;64.00
46754;DHT22;32500;50.620;3.400;2024-01-27T09:45:30;14.60;63.70
46754;DHT22;32500;50.620;3.400;2024-01-27T09:48:00;14.70;64.60
46754;DHT22;32500;50.620;3.400;2024-01-27T09:50:26;14.80;65.80
46754;DHT22;32500;50.620;3.400;2024-01-27T09:52:52;14.90;62.50
46754;DHT22;32500;50.620;3.400;2024-01-27T09:55:19;14.40;57.20
46754;DHT22;32500;50.620;3.400;2024-01-27T09:57:45;14.30;58.60
46754;DHT22;32500;50.620;3.400;2024-01-27T10:00:11;14.60;59.30
46754;DHT22;32500;50.620;3.400;2024-01-27T10:02:41;14.80;59.00
46754;DHT22;32500;50.620;3.400;2024-01-27T10:05:09;14.90;58.70
46754;DHT22;32500;50.620;3.400;2024-01-27T10:07:34;14.90;58.60
46754;DHT22;32500;50.620;3.400;2024-01-27T10:10:00;15.00;58.70
46754;DHT22;32500;50.620;3.400;2024-01-27T10:12:28;15.10;59.00
46754;DHT22;32500;50.620;3.400;2024-01-27T10:14:54;15.20;59.10
46754;DHT22;32500;50.620;3.400;2024-01-27T10:17:23;15.30;58.80
46754;DHT22;32500;50.620;3.400;2024-01-27T10:20:04;15.40;59.10
46754;DHT22;32500;50.620;3.400;2024-01-27T10:22:40;15.50;59.50
46754;DHT22;32500;50.620;3.400;2024-01-27T10:25:06;15.60;58.50
46754;DHT22;32500;50.620;3.400;2024-01-27T10:27:33;15.60;58.30
46754;DHT22;32500;50.620;3.400;2024-01-27T10:29:59;15.70;58.00
46754;DHT22;32500;50.620;3.400;2024-01-27T10:32:24;15.70;58.10
46754;DHT22;32500;50.620;3.400;2024-01-27T10:35:10;15.80;57.40
46754;DHT22;32500;50.620;3.400;2024-01-27T10:37:37;15.80;57.40
46754;DHT22;32500;50.620;3.400;2024-01-27T10:40:04;15.90;57.40
46754;DHT22;32500;50.620;3.400;2024-01-27T10:42:30;16.00;57.20
46754;DHT22;32500;50.620;3.400;2024-01-27T10:44:59;16.00;57.20
46754;DHT22;32500;50.620;3.400;2024-01-27T10:47:29;16.20;57.20
46754;DHT22;32500;50.620;3.400;2024-01-27T10:49:55;16.20;57.20
46754;DHT22;32500;50.620;3.400;2024-01-27T10:52:32;16.30;57.30
46754;DHT22;32500;50.620;3.400;2024-01-27T10:55:00;16.20;57.20
46754;DHT22;32500;50.620;3.400;2024-01-27T10:57:27;16.30;57.30
46754;DHT22;32500;50.620;3.400;2024-01-27T10:59:58;16.30;57.20
46754;DHT22;32500;50.620;3.400;2024-01-27T11:02:25;16.30;57.30
46754;DHT22;32500;50.620;3.400;2024-01-27T11:04:52;16.30;57.50
46754;DHT22;32500;50.620;3.400;2024-01-27T11:07:20;16.30;57.80
46754;DHT22;32500;50.620;3.400;2024-01-27T11:09:49;16.30;57.80
46754;DHT22;32500;50.620;3.400;2024-01-27T11:12:19;16.40;58.00
46754;DHT22;32500;50.620;3.400;2024-01-27T11:14:50;16.30;58.30
46754;DHT22;32500;50.620;3.400;2024-01-27T11:17:17;16.30;58.50
46754;DHT22;32500;50.620;3.400;2024-01-27T11:19:44;16.40;58.90
46754;DHT22;32500;50.620;3.400;2024-01-27T11:24:49;16.50;59.30
46754;DHT22;32500;50.620;3.400;2024-01-27T11:27:15;16.60;59.70
46754;DHT22;32500;50.620;3.400;2024-01-27T11:29:47;16.70;59.80
46754;DHT22;32500;50.620;3.400;2024-01-27T11:32:13;16.80;60.50
46754;DHT22;32500;50.620;3.400;2024-01-27T11:34:44;16.80;60.10
46754;DHT22;32500;50.620;3.400;2024-01-27T11:37:19;16.90;60.20
46754;DHT22;32500;50.620;3.400;2024-01-27T11:39:50;17.00;60.30
46754;DHT22;32500;50.620;3.400;2024-01-27T11:42:17;17.00;60.60
46754;DHT22;32500;50.620;3.400;2024-01-27T11:44:43;17.10;61.10
46754;DHT22;32500;50.620;3.400;2024-01-27T11:47:15;17.10;60.60
46754;DHT22;32500;50.620;3.400;2024-01-27T11:49:42;17.10;60.90
46754;DHT22;32500;50.620;3.400;2024-01-27T11:52:08;17.10;61.30
46754;DHT22;32500;50.620;3.400;2024-01-27T11:54:33;17.20;61.40
46754;DHT22;32500;50.620;3.400;2024-01-27T11:57:00;17.20;61.20
46754;DHT22;32500;50.620;3.400;2024-01-27T11:59:27;17.20;61.20
46754;DHT22;32500;50.620;3.400;2024-01-27T12:01:52;17.20;61.30
46754;DHT22;32500;50.620;3.400;2024-01-27T12:04:18;17.30;61.40
46754;DHT22;32500;50.620;3.400;2024-01-27T12:06:45;17.30;61.20
46754;DHT22;32500;50.620;3.400;2024-01-27T12:09:10;17.40;61.10
46754;DHT22;32500;50.620;3.400;2024-01-27T12:11:40;17.30;60.80
46754;DHT22;32500;50.620;3.400;2024-01-27T12:14:06;17.30;61.10
46754;DHT22;32500;50.620;3.400;2024-01-27T12:16:32;17.30;61.60
46754;DHT22;32500;50.620;3.400;2024-01-27T12:18:58;17.40;62.10
46754;DHT22;32500;50.620;3.400;2024-01-27T12:21:25;17.40;61.90
46754;DHT22;32500;50.620;3.400;2024-01-27T12:23:57;17.50;62.10
46754;DHT22;32500;50.620;3.400;2024-01-27T12:26:29;17.50;61.80
46754;DHT22;32500;50.620;3.400;2024-01-27T12:28:56;17.50;61.60
46754;DHT22;32500;50.620;3.400;2024-01-27T12:31:24;17.40;61.50
46754;DHT22;32500;50.620;3.400;2024-01-27T12:33:52;17.40;61.60
46754;DHT22;32500;50.620;3.400;2024-01-27T12:36:19;17.50;61.30
46754;DHT22;32500;50.620;3.400;2024-01-27T12:38:47;17.50;61.00
46754;DHT22;32500;50.620;3.400;2024-01-27T12:41:13;17.60;61.90
46754;DHT22;32500;50.620;3.400;2024-01-27T12:43:39;17.60;60.90
46754;DHT22;32500;50.620;3.400;2024-01-27T12:46:04;17.60;60.00
46754;DHT22;32500;50.620;3.400;2024-01-27T12:48:31;17.60;59.70
46754;DHT22;32500;50.620;3.400;2024-01-27T12:50:56;17.60;60.30
46754;DHT22;32500;50.620;3.400;2024-01-27T12:53:22;17.60;59.10
46754;DHT22;32500;50.620;3.400;2024-01-27T12:55:47;17.60;59.30
46754;DHT22;32500;50.620;3.400;2024-01-27T12:58:13;17.50;58.80
46754;DHT22;32500;50.620;3.400;2024-01-27T13:00:39;17.50;59.00
46754;DHT22;32500;50.620;3.400;2024-01-27T13:03:06;17.50;59.10
46754;DHT22;32500;50.620;3.400;2024-01-27T13:05:31;17.50;59.00
46754;DHT22;32500;50.620;3.400;2024-01-27T13:07:59;17.50;58.80
46754;DHT22;32500;50.620;3.400;2024-01-27T13:10:25;17.50;58.90
46754;DHT22;32500;50.620;3.400;2024-01-27T13:12:50;17.50;59.30
46754;DHT22;32500;50.620;3.400;2024-01-27T13:15:16;17.40;59.30
46754;DHT22;32500;50.620;3.400;2024-01-27T13:17:41;17.50;59.50
46754;DHT22;32500;50.620;3.400;2024-01-27T13:20:07;17.40;59.70
46754;DHT22;32500;50.620;3.400;2024-01-27T13:22:34;17.50;59.90
46754;DHT22;32500;50.620;3.400;2024-01-27T13:25:00;17.60;60.20
46754;DHT22;32500;50.620;3.400;2024-01-27T13:27:29;17.60;60.00
46754;DHT22;32500;50.620;3.400;2024-01-27T13:29:55;17.60;59.90
46754;DHT22;32500;50.620;3.400;2024-01-27T13:32:20;17.60;60.00
46754;DHT22;32500;50.620;3.400;2024-01-27T13:34:46;17.70;59.80
46754;DHT22;32500;50.620;3.400;2024-01-27T13:37:13;17.70;59.70
46754;DHT22;32500;50.620;3.400;2024-01-27T13:39:41;17.70;60.20
46754;DHT22;32500;50.620;3.400;2024-01-27T13:42:07;17.70;59.90
46754;DHT22;32500;50.620;3.400;2024-01-27T13:44:32;17.70;60.00
46754;DHT22;32500;50.620;3.400;2024-01-27T13:47:04;17.70;59.80
46754;DHT22;32500;50.620;3.400;2024-01-27T13:49:31;17.70;59.70
46754;DHT22;32500;50.620;3.400;2024-01-27T13:51:57;17.80;59.90
46754;DHT22;32500;50.620;3.400;2024-01-27T13:54:23;17.90;60.00
46754;DHT22;32500;50.620;3.400;2024-01-27T13:56:49;17.90;59.70
46754;DHT22;32500;50.620;3.400;2024-01-27T13:59:14;17.90;59.70
46754;DHT22;32500;50.620;3.400;2024-01-27T14:01:40;17.90;59.80
46754;DHT22;32500;50.620;3.400;2024-01-27T14:04:06;17.90;59.60
46754;DHT22;32500;50.620;3.400;2024-01-27T14:06:34;17.90;59.10
46754;DHT22;32500;50.620;3.400;2024-01-27T14:09:00;17.90;59.50
46754;DHT22;32500;50.620;3.400;2024-01-27T14:11:27;17.90;59.40
46754;DHT22;32500;50.620;3.400;2024-01-27T14:13:53;18.00;59.40
46754;DHT22;32500;50.620;3.400;2024-01-27T14:16:19;18.00;59.40
46754;DHT22;32500;50.620;3.400;2024-01-27T14:18:45;17.90;59.40
46754;DHT22;32500;50.620;3.400;2024-01-27T14:21:11;18.00;59.20
46754;DHT22;32500;50.620;3.400;2024-01-27T14:23:37;18.00;59.10
46754;DHT22;32500;50.620;3.400;2024-01-27T14:26:04;17.90;59.20
46754;DHT22;32500;50.620;3.400;2024-01-27T14:28:29;18.00;59.50
46754;DHT22;32500;50.620;3.400;2024-01-27T14:30:55;18.00;59.30
46754;DHT22;32500;50.620;3.400;2024-01-27T14:33:21;18.00;59.40
46754;DHT22;32500;50.620;3.400;2024-01-27T14:35:48;18.00;59.00
46754;DHT22;32500;50.620;3.400;2024-01-27T14:38:14;18.00;59.20
46754;DHT22;32500;50.620;3.400;2024-01-27T14:40:40;18.00;59.00
46754;DHT22;32500;50.620;3.400;2024-01-27T14:43:06;18.00;59.20
46754;DHT22;32500;50.620;3.400;2024-01-27T14:45:35;17.90;59.10
46754;DHT22;32500;50.620;3.400;2024-01-27T14:48:01;17.90;59.30
46754;DHT22;32500;50.620;3.400;2024-01-27T14:50:28;17.90;59.30
46754;DHT22;32500;50.620;3.400;2024-01-27T14:52:53;17.90;59.40
46754;DHT22;32500;50.620;3.400;2024-01-27T14:55:19;17.90;59.30
46754;DHT22;32500;50.620;3.400;2024-01-27T14:57:45;17.90;59.80
46754;DHT22;32500;50.620;3.400;2024-01-27T15:00:11;17.80;59.60
46754;DHT22;32500;50.620;3.400;2024-01-27T15:02:40;17.80;59.60
46754;DHT22;32500;50.620;3.400;2024-01-27T15:05:06;17.80;59.50
46754;DHT22;32500;50.620;3.400;2024-01-27T15:07:34;17.80;59.70
46754;DHT22;32500;50.620;3.400;2024-01-27T15:10:00;17.80;59.70
46754;DHT22;32500;50.620;3.400;2024-01-27T15:12:25;17.80;59.60
46754;DHT22;32500;50.620;3.400;2024-01-27T15:14:51;17.80;59.70
46754;DHT22;32500;50.620;3.400;2024-01-27T15:17:20;17.80;60.00
46754;DHT22;32500;50.620;3.400;2024-01-27T15:19:47;17.80;60.30
46754;DHT22;32500;50.620;3.400;2024-01-27T15:22:13;17.80;60.50
46754;DHT22;32500;50.620;3.400;2024-01-27T15:24:38;17.80;60.20
46754;DHT22;32500;50.620;3.400;2024-01-27T15:27:05;17.80;60.60